sensor_id;sensor_type;location;lat;lon;timestamp;P1;durP1;ratioP1;P2;durP2;ratioP2
74269;SDS011;62754;48.252;11.654;2022-09-09T00:00:55;4.53;;;2.50;;
74269;SDS011;62754;48.252;11.654;2022-09-09T00:03:27;4.38;;;2.83;;
74269;SDS011;62754;48.252;11.654;2022-09-09T00:06:12;5.35;;;3.47;;
74269;SDS011;62754;48.252;11.654;2022-09-09T00:11:51;8.43;;;4.72;;
74269;SDS011;62754;48.252;11.654;2022-09-09T00:14:23;9.13;;;4.68;;
74269;SDS011;62754;48.252;11.654;2022-09-09T00:17:00;6.72;;;3.85;;
74269;SDS011;62754;48.252;11.654;2022-09-09T00:19:44;6.85;;;3.50;;
74269;SDS011;62754;48.252;11.654;2022-09-09T00:32:40;5.75;;;2.13;;
74269;SDS011;62754;48.252;11.654;2022-09-09T00:37:44;6.25;;;2.00;;
74269;SDS011;62754;48.252;11.654;2022-09-09T00:40:18;3.92;;;2.05;;
74269;SDS011;62754;48.252;11.654;2022-09-09T00:42:52;4.68;;;1.60;;
74269;SDS011;62754;48.252;11.654;2022-09-09T00:45:52;3.08;;;1.48;;
74269;SDS011;62754;48.252;11.654;2022-09-09T00:48:25;2.80;;;1.80;;
74269;SDS011;62754;48.252;11.654;2022-09-09T00:51:27;4.43;;;1.70;;
74269;SDS011;62754;48.252;11.654;2022-09-09T01:04:53;5.55;;;1.95;;
74269;SDS011;62754;48.252;11.654;2022-09-09T01:07:19;3.10;;;1.40;;
74269;SDS011;62754;48.252;11.654;2022-09-09T01:09:48;4.25;;;2.00;;
74269;SDS011;62754;48.252;11.654;2022-09-09T01:12:23;3.40;;;2.00;;
74269;SDS011;62754;48.252;11.654;2022-09-09T01:15:02;4.10;;;2.08;;
74269;SDS011;62754;48.252;11.654;2022-09-09T01:28:51;5.40;;;2.10;;
74269;SDS011;62754;48.252;11.654;2022-09-09T01:31:19;4.93;;;2.15;;
74269;SDS011;62754;48.252;11.654;2022-09-09T01:33:49;3.42;;;1.70;;
74269;SDS011;62754;48.252;11.654;2022-09-09T01:38:50;3.47;;;1.35;;
74269;SDS011;62754;48.252;11.654;2022-09-09T01:41:16;3.28;;;1.63;;
74269;SDS011;62754;48.252;11.654;2022-09-09T01:43:42;4.20;;;1.77;;
74269;SDS011;62754;48.252;11.654;2022-09-09T01:46:08;4.47;;;1.48;;
74269;SDS011;62754;48.252;11.654;2022-09-09T01:48:36;3.92;;;1.63;;
74269;SDS011;62754;48.252;11.654;2022-09-09T01:51:02;3.42;;;1.52;;
74269;SDS011;62754;48.252;11.654;2022-09-09T01:53:27;2.50;;;1.50;;
74269;SDS011;62754;48.252;11.654;2022-09-09T02:03:47;3.03;;;1.40;;
74269;SDS011;62754;48.252;11.654;2022-09-09T02:09:06;2.92;;;1.40;;
74269;SDS011;62754;48.252;11.654;2022-09-09T02:14:15;3.55;;;1.52;;
74269;SDS011;62754;48.252;11.654;2022-09-09T02:16:44;2.20;;;1.25;;
74269;SDS011;62754;48.252;11.654;2022-09-09T02:19:23;3.28;;;1.27;;
74269;SDS011;62754;48.252;11.654;2022-09-09T02:21:53;3.40;;;1.40;;
74269;SDS011;62754;48.252;11.654;2022-09-09T02:24:21;3.80;;;1.45;;
74269;SDS011;62754;48.252;11.654;2022-09-09T02:26:49;3.65;;;1.42;;
74269;SDS011;62754;48.252;11.654;2022-09-09T02:29:22;3.72;;;1.38;;
74269;SDS011;62754;48.252;11.654;2022-09-09T02:31:53;3.90;;;1.20;;
74269;SDS011;62754;48.252;11.654;2022-09-09T02:34:23;3.85;;;1.20;;
74269;SDS011;62754;48.252;11.654;2022-09-09T02:36:51;3.15;;;1.30;;
74269;SDS011;62754;48.252;11.654;2022-09-09T02:39:19;3.90;;;1.10;;
74269;SDS011;62754;48.252;11.654;2022-09-09T02:41:45;3.75;;;1.38;;
74269;SDS011;62754;48.252;11.654;2022-09-09T02:44:12;2.72;;;1.48;;
74269;SDS011;62754;48.252;11.654;2022-09-09T02:49:27;3.58;;;1.30;;
74269;SDS011;62754;48.252;11.654;2022-09-09T02:52:04;2.17;;;1.20;;
74269;SDS011;62754;48.252;11.654;2022-09-09T02:54:33;4.20;;;1.30;;
74269;SDS011;62754;48.252;11.654;2022-09-09T02:57:02;2.75;;;1.20;;
74269;SDS011;62754;48.252;11.654;2022-09-09T02:59:28;2.35;;;1.30;;
74269;SDS011;62754;48.252;11.654;2022-09-09T03:01:55;3.13;;;1.20;;
74269;SDS011;62754;48.252;11.654;2022-09-09T03:04:20;4.70;;;1.70;;
74269;SDS011;62754;48.252;11.654;2022-09-09T03:06:46;3.03;;;1.15;;
74269;SDS011;62754;48.252;11.654;2022-09-09T03:09:12;3.28;;;1.30;;
74269;SDS011;62754;48.252;11.654;2022-09-09T03:11:38;2.95;;;1.15;;
74269;SDS011;62754;48.252;11.654;2022-09-09T03:14:04;4.97;;;1.70;;
74269;SDS011;62754;48.252;11.654;2022-09-09T03:16:29;2.20;;;1.23;;
74269;SDS011;62754;48.252;11.654;2022-09-09T03:18:55;2.75;;;1.35;;
74269;SDS011;62754;48.252;11.654;2022-09-09T03:21:21;3.65;;;1.30;;
74269;SDS011;62754;48.252;11.654;2022-09-09T03:23:47;2.95;;;1.27;;
74269;SDS011;62754;48.252;11.654;2022-09-09T03:26:13;3.35;;;1.30;;
74269;SDS011;62754;48.252;11.654;2022-09-09T03:28:38;3.10;;;1.60;;
74269;SDS011;62754;48.252;11.654;2022-09-09T03:31:04;4.50;;;1.45;;
74269;SDS011;62754;48.252;11.654;2022-09-09T03:33:31;3.20;;;1.33;;
74269;SDS011;62754;48.252;11.654;2022-09-09T03:35:57;4.45;;;1.20;;
74269;SDS011;62754;48.252;11.654;2022-09-09T03:38:23;2.67;;;1.08;;
74269;SDS011;62754;48.252;11.654;2022-09-09T03:43:16;2.45;;;1.13;;
74269;SDS011;62754;48.252;11.654;2022-09-09T03:45:45;2.30;;;1.17;;
74269;SDS011;62754;48.252;11.654;2022-09-09T03:48:11;2.63;;;1.10;;
74269;SDS011;62754;48.252;11.654;2022-09-09T03:50:37;3.33;;;1.30;;
74269;SDS011;62754;48.252;11.654;2022-09-09T03:53:03;2.00;;;1.08;;
74269;SDS011;62754;48.252;11.654;2022-09-09T03:55:28;2.35;;;1.08;;
74269;SDS011;62754;48.252;11.654;2022-09-09T03:57:54;2.10;;;1.00;;
74269;SDS011;62754;48.252;11.654;2022-09-09T04:00:20;2.35;;;1.15;;
74269;SDS011;62754;48.252;11.654;2022-09-09T04:02:46;3.10;;;1.48;;
74269;SDS011;62754;48.252;11.654;2022-09-09T04:05:12;3.15;;;1.30;;
74269;SDS011;62754;48.252;11.654;2022-09-09T04:07:37;2.65;;;1.20;;
74269;SDS011;62754;48.252;11.654;2022-09-09T04:10:03;1.95;;;1.30;;
74269;SDS011;62754;48.252;11.654;2022-09-09T04:12:29;2.05;;;1.02;;
74269;SDS011;62754;48.252;11.654;2022-09-09T04:14:55;4.57;;;1.33;;
74269;SDS011;62754;48.252;11.654;2022-09-09T04:17:21;5.20;;;1.38;;
74269;SDS011;62754;48.252;11.654;2022-09-09T04:19:46;4.05;;;1.17;;
74269;SDS011;62754;48.252;11.654;2022-09-09T04:22:12;4.20;;;1.42;;
74269;SDS011;62754;48.252;11.654;2022-09-09T04:24:38;5.00;;;1.92;;
74269;SDS011;62754;48.252;11.654;2022-09-09T04:27:04;2.28;;;1.25;;
74269;SDS011;62754;48.252;11.654;2022-09-09T04:29:29;3.63;;;1.33;;
74269;SDS011;62754;48.252;11.654;2022-09-09T04:31:55;2.88;;;1.10;;
74269;SDS011;62754;48.252;11.654;2022-09-09T04:34:21;3.38;;;1.15;;
74269;SDS011;62754;48.252;11.654;2022-09-09T04:36:47;2.17;;;1.00;;
74269;SDS011;62754;48.252;11.654;2022-09-09T04:39:12;2.45;;;1.20;;
74269;SDS011;62754;48.252;11.654;2022-09-09T04:41:38;2.58;;;1.15;;
74269;SDS011;62754;48.252;11.654;2022-09-09T04:44:04;3.20;;;1.20;;
74269;SDS011;62754;48.252;11.654;2022-09-09T04:46:29;4.13;;;0.98;;
74269;SDS011;62754;48.252;11.654;2022-09-09T04:48:55;1.75;;;1.00;;
74269;SDS011;62754;48.252;11.654;2022-09-09T04:51:21;3.13;;;1.33;;
74269;SDS011;62754;48.252;11.654;2022-09-09T04:53:47;3.72;;;1.30;;
74269;SDS011;62754;48.252;11.654;2022-09-09T04:56:13;3.03;;;1.10;;
74269;SDS011;62754;48.252;11.654;2022-09-09T04:58:40;2.15;;;1.15;;
74269;SDS011;62754;48.252;11.654;2022-09-09T05:01:07;2.05;;;1.20;;
74269;SDS011;62754;48.252;11.654;2022-09-09T05:03:39;3.08;;;1.10;;
74269;SDS011;62754;48.252;11.654;2022-09-09T05:06:09;2.97;;;1.17;;
74269;SDS011;62754;48.252;11.654;2022-09-09T05:08:37;3.15;;;1.23;;
74269;SDS011;62754;48.252;11.654;2022-09-09T05:13:59;2.70;;;1.10;;
74269;SDS011;62754;48.252;11.654;2022-09-09T05:16:25;2.40;;;1.05;;
74269;SDS011;62754;48.252;11.654;2022-09-09T05:18:51;3.30;;;1.40;;
74269;SDS011;62754;48.252;11.654;2022-09-09T05:21:17;2.22;;;1.20;;
74269;SDS011;62754;48.252;11.654;2022-09-09T05:23:44;1.95;;;1.00;;
74269;SDS011;62754;48.252;11.654;2022-09-09T05:26:17;2.35;;;1.10;;
74269;SDS011;62754;48.252;11.654;2022-09-09T05:28:45;2.60;;;1.00;;
74269;SDS011;62754;48.252;11.654;2022-09-09T05:31:11;2.85;;;1.30;;
74269;SDS011;62754;48.252;11.654;2022-09-09T05:33:39;2.28;;;1.08;;
74269;SDS011;62754;48.252;11.654;2022-09-09T05:36:10;2.80;;;1.13;;
74269;SDS011;62754;48.252;11.654;2022-09-09T05:38:40;3.28;;;1.10;;
74269;SDS011;62754;48.252;11.654;2022-09-09T05:41:06;2.63;;;1.10;;
74269;SDS011;62754;48.252;11.654;2022-09-09T05:45:59;3.47;;;1.88;;
74269;SDS011;62754;48.252;11.654;2022-09-09T05:48:28;4.07;;;1.50;;
74269;SDS011;62754;48.252;11.654;2022-09-09T05:53:20;3.38;;;1.10;;
74269;SDS011;62754;48.252;11.654;2022-09-09T05:55:46;2.83;;;1.30;;
74269;SDS011;62754;48.252;11.654;2022-09-09T05:58:11;4.20;;;1.23;;
74269;SDS011;62754;48.252;11.654;2022-09-09T06:00:37;3.92;;;1.15;;
74269;SDS011;62754;48.252;11.654;2022-09-09T06:03:03;3.25;;;1.30;;
74269;SDS011;62754;48.252;11.654;2022-09-09T06:05:29;3.08;;;1.10;;
74269;SDS011;62754;48.252;11.654;2022-09-09T06:07:55;3.80;;;1.40;;
74269;SDS011;62754;48.252;11.654;2022-09-09T06:10:21;3.95;;;1.88;;
74269;SDS011;62754;48.252;11.654;2022-09-09T06:12:47;4.10;;;1.50;;
74269;SDS011;62754;48.252;11.654;2022-09-09T06:15:12;2.72;;;1.20;;
74269;SDS011;62754;48.252;11.654;2022-09-09T06:17:38;2.90;;;1.13;;
74269;SDS011;62754;48.252;11.654;2022-09-09T06:20:04;4.40;;;0.85;;
74269;SDS011;62754;48.252;11.654;2022-09-09T06:24:56;3.88;;;1.10;;
74269;SDS011;62754;48.252;11.654;2022-09-09T06:27:22;3.30;;;1.63;;
74269;SDS011;62754;48.252;11.654;2022-09-09T06:29:47;4.32;;;1.15;;
74269;SDS011;62754;48.252;11.654;2022-09-09T06:32:13;5.72;;;1.27;;
74269;SDS011;62754;48.252;11.654;2022-09-09T06:34:39;5.13;;;1.13;;
74269;SDS011;62754;48.252;11.654;2022-09-09T06:37:05;3.97;;;1.15;;
74269;SDS011;62754;48.252;11.654;2022-09-09T06:39:30;4.07;;;1.20;;
74269;SDS011;62754;48.252;11.654;2022-09-09T06:41:56;1.88;;;0.90;;
74269;SDS011;62754;48.252;11.654;2022-09-09T06:44:22;2.45;;;1.02;;
74269;SDS011;62754;48.252;11.654;2022-09-09T06:46:48;3.90;;;1.15;;
74269;SDS011;62754;48.252;11.654;2022-09-09T06:49:13;2.67;;;1.00;;
74269;SDS011;62754;48.252;11.654;2022-09-09T06:51:39;6.00;;;0.95;;
74269;SDS011;62754;48.252;11.654;2022-09-09T06:54:05;2.78;;;1.23;;
74269;SDS011;62754;48.252;11.654;2022-09-09T06:56:32;6.75;;;1.60;;
74269;SDS011;62754;48.252;11.654;2022-09-09T06:59:01;2.80;;;1.00;;
74269;SDS011;62754;48.252;11.654;2022-09-09T07:01:34;4.95;;;1.42;;
74269;SDS011;62754;48.252;11.654;2022-09-09T07:04:04;3.70;;;1.25;;
74269;SDS011;62754;48.252;11.654;2022-09-09T07:06:31;5.28;;;1.80;;
74269;SDS011;62754;48.252;11.654;2022-09-09T07:09:00;4.65;;;1.10;;
74269;SDS011;62754;48.252;11.654;2022-09-09T07:11:29;2.78;;;0.98;;
74269;SDS011;62754;48.252;11.654;2022-09-09T07:14:00;2.40;;;0.80;;
74269;SDS011;62754;48.252;11.654;2022-09-09T07:18:52;3.60;;;1.10;;
74269;SDS011;62754;48.252;11.654;2022-09-09T07:23:44;4.00;;;1.52;;
74269;SDS011;62754;48.252;11.654;2022-09-09T07:26:11;4.63;;;1.65;;
74269;SDS011;62754;48.252;11.654;2022-09-09T07:28:39;2.72;;;1.52;;
74269;SDS011;62754;48.252;11.654;2022-09-09T07:31:05;3.97;;;1.60;;
74269;SDS011;62754;48.252;11.654;2022-09-09T07:33:32;5.65;;;1.40;;
74269;SDS011;62754;48.252;11.654;2022-09-09T07:38:39;3.65;;;1.40;;
74269;SDS011;62754;48.252;11.654;2022-09-09T07:41:14;3.90;;;1.70;;
74269;SDS011;62754;48.252;11.654;2022-09-09T07:43:42;6.32;;;1.92;;
74269;SDS011;62754;48.252;11.654;2022-09-09T07:46:10;5.97;;;1.52;;
74269;SDS011;62754;48.252;11.654;2022-09-09T07:48:37;5.28;;;2.00;;
74269;SDS011;62754;48.252;11.654;2022-09-09T07:51:08;4.35;;;1.42;;
74269;SDS011;62754;48.252;11.654;2022-09-09T07:53:36;4.88;;;1.58;;
74269;SDS011;62754;48.252;11.654;2022-09-09T07:56:03;4.03;;;1.70;;
74269;SDS011;62754;48.252;11.654;2022-09-09T07:58:32;3.65;;;1.60;;
74269;SDS011;62754;48.252;11.654;2022-09-09T08:00:58;2.75;;;1.55;;
74269;SDS011;62754;48.252;11.654;2022-09-09T08:03:24;4.88;;;1.80;;
74269;SDS011;62754;48.252;11.654;2022-09-09T08:05:50;4.57;;;2.00;;
74269;SDS011;62754;48.252;11.654;2022-09-09T08:08:16;4.57;;;1.77;;
74269;SDS011;62754;48.252;11.654;2022-09-09T08:10:42;4.07;;;1.60;;
74269;SDS011;62754;48.252;11.654;2022-09-09T08:13:08;4.97;;;1.70;;
74269;SDS011;62754;48.252;11.654;2022-09-09T08:18:00;2.97;;;1.55;;
74269;SDS011;62754;48.252;11.654;2022-09-09T08:20:25;3.53;;;1.52;;
74269;SDS011;62754;48.252;11.654;2022-09-09T08:22:51;4.07;;;1.70;;
74269;SDS011;62754;48.252;11.654;2022-09-09T08:25:17;3.08;;;1.55;;
74269;SDS011;62754;48.252;11.654;2022-09-09T08:27:43;3.40;;;1.60;;
74269;SDS011;62754;48.252;11.654;2022-09-09T08:30:09;4.30;;;1.60;;
74269;SDS011;62754;48.252;11.654;2022-09-09T08:32:35;5.38;;;1.60;;
74269;SDS011;62754;48.252;11.654;2022-09-09T08:35:01;3.80;;;1.60;;
74269;SDS011;62754;48.252;11.654;2022-09-09T08:37:26;3.80;;;1.42;;
74269;SDS011;62754;48.252;11.654;2022-09-09T08:39:52;2.97;;;1.75;;
74269;SDS011;62754;48.252;11.654;2022-09-09T08:45:14;3.45;;;1.35;;
74269;SDS011;62754;48.252;11.654;2022-09-09T08:48:10;2.90;;;1.67;;
74269;SDS011;62754;48.252;11.654;2022-09-09T08:50:43;4.72;;;1.40;;
74269;SDS011;62754;48.252;11.654;2022-09-09T08:53:22;4.25;;;1.40;;
74269;SDS011;62754;48.252;11.654;2022-09-09T08:55:56;4.22;;;1.65;;
74269;SDS011;62754;48.252;11.654;2022-09-09T08:58:25;3.08;;;1.50;;
74269;SDS011;62754;48.252;11.654;2022-09-09T09:11:38;4.65;;;1.55;;
74269;SDS011;62754;48.252;11.654;2022-09-09T09:14:09;3.42;;;1.75;;
74269;SDS011;62754;48.252;11.654;2022-09-09T09:19:30;3.15;;;1.48;;
74269;SDS011;62754;48.252;11.654;2022-09-09T09:22:00;4.00;;;1.70;;
74269;SDS011;62754;48.252;11.654;2022-09-09T09:24:34;2.90;;;1.30;;
74269;SDS011;62754;48.252;11.654;2022-09-09T09:27:12;3.97;;;1.63;;
74269;SDS011;62754;48.252;11.654;2022-09-09T09:29:56;5.35;;;1.50;;
74269;SDS011;62754;48.252;11.654;2022-09-09T09:32:23;3.63;;;1.35;;
74269;SDS011;62754;48.252;11.654;2022-09-09T09:34:51;2.95;;;1.65;;
74269;SDS011;62754;48.252;11.654;2022-09-09T09:37:33;3.55;;;1.88;;
74269;SDS011;62754;48.252;11.654;2022-09-09T09:40:09;5.07;;;1.67;;
74269;SDS011;62754;48.252;11.654;2022-09-09T09:42:35;2.72;;;1.58;;
74269;SDS011;62754;48.252;11.654;2022-09-09T09:45:08;3.08;;;1.30;;
74269;SDS011;62754;48.252;11.654;2022-09-09T09:48:00;3.80;;;1.40;;
74269;SDS011;62754;48.252;11.654;2022-09-09T09:50:28;2.75;;;1.30;;
74269;SDS011;62754;48.252;11.654;2022-09-09T09:52:59;3.45;;;1.60;;
74269;SDS011;62754;48.252;11.654;2022-09-09T09:57:54;3.30;;;1.58;;
74269;SDS011;62754;48.252;11.654;2022-09-09T10:00:30;4.05;;;1.52;;
74269;SDS011;62754;48.252;11.654;2022-09-09T10:05:23;3.35;;;1.10;;
74269;SDS011;62754;48.252;11.654;2022-09-09T10:13:18;3.97;;;1.30;;
74269;SDS011;62754;48.252;11.654;2022-09-09T10:15:52;2.17;;;1.10;;
74269;SDS011;62754;48.252;11.654;2022-09-09T10:23:48;3.53;;;1.60;;
74269;SDS011;62754;48.252;11.654;2022-09-09T10:26:38;3.10;;;1.60;;
74269;SDS011;62754;48.252;11.654;2022-09-09T10:35:17;4.35;;;1.75;;
74269;SDS011;62754;48.252;11.654;2022-09-09T10:40:43;3.30;;;1.50;;
74269;SDS011;62754;48.252;11.654;2022-09-09T10:54:06;3.78;;;1.27;;
74269;SDS011;62754;48.252;11.654;2022-09-09T10:56:34;5.60;;;1.65;;
74269;SDS011;62754;48.252;11.654;2022-09-09T10:59:12;3.00;;;1.30;;
74269;SDS011;62754;48.252;11.654;2022-09-09T11:07:02;3.40;;;1.13;;
74269;SDS011;62754;48.252;11.654;2022-09-09T11:09:38;2.28;;;1.17;;
74269;SDS011;62754;48.252;11.654;2022-09-09T11:12:10;5.03;;;1.20;;
74269;SDS011;62754;48.252;11.654;2022-09-09T11:14:44;2.75;;;0.93;;
74269;SDS011;62754;48.252;11.654;2022-09-09T11:17:18;3.15;;;1.00;;
74269;SDS011;62754;48.252;11.654;2022-09-09T11:19:46;4.20;;;1.23;;
74269;SDS011;62754;48.252;11.654;2022-09-09T11:22:17;2.47;;;1.08;;
74269;SDS011;62754;48.252;11.654;2022-09-09T11:24:48;3.28;;;0.85;;
74269;SDS011;62754;48.252;11.654;2022-09-09T11:38:37;2.78;;;0.88;;
74269;SDS011;62754;48.252;11.654;2022-09-09T11:41:07;6.35;;;0.98;;
74269;SDS011;62754;48.252;11.654;2022-09-09T11:43:39;1.90;;;0.80;;
74269;SDS011;62754;48.252;11.654;2022-09-09T11:46:08;1.55;;;0.60;;
74269;SDS011;62754;48.252;11.654;2022-09-09T11:48:36;2.28;;;0.73;;
74269;SDS011;62754;48.252;11.654;2022-09-09T11:51:07;4.00;;;1.05;;
74269;SDS011;62754;48.252;11.654;2022-09-09T11:53:35;2.28;;;0.60;;
74269;SDS011;62754;48.252;11.654;2022-09-09T11:56:13;2.17;;;0.60;;
74269;SDS011;62754;48.252;11.654;2022-09-09T11:58:54;1.23;;;0.60;;
74269;SDS011;62754;48.252;11.654;2022-09-09T12:04:10;1.75;;;0.70;;
74269;SDS011;62754;48.252;11.654;2022-09-09T12:06:54;3.47;;;0.80;;
74269;SDS011;62754;48.252;11.654;2022-09-09T12:14:42;2.78;;;1.00;;
74269;SDS011;62754;48.252;11.654;2022-09-09T12:17:20;1.17;;;0.43;;
74269;SDS011;62754;48.252;11.654;2022-09-09T12:19:48;2.50;;;0.75;;
74269;SDS011;62754;48.252;11.654;2022-09-09T12:27:52;2.15;;;0.60;;
74269;SDS011;62754;48.252;11.654;2022-09-09T12:30:22;1.65;;;0.60;;
74269;SDS011;62754;48.252;11.654;2022-09-09T12:33:08;1.33;;;0.60;;
74269;SDS011;62754;48.252;11.654;2022-09-09T12:35:36;0.93;;;0.50;;
74269;SDS011;62754;48.252;11.654;2022-09-09T12:38:03;1.80;;;0.57;;
74269;SDS011;62754;48.252;11.654;2022-09-09T12:40:32;1.58;;;0.40;;
74269;SDS011;62754;48.252;11.654;2022-09-09T12:42:59;1.33;;;0.40;;
74269;SDS011;62754;48.252;11.654;2022-09-09T12:45:25;3.00;;;0.70;;
74269;SDS011;62754;48.252;11.654;2022-09-09T12:47:58;2.80;;;0.52;;
74269;SDS011;62754;48.252;11.654;2022-09-09T12:50:35;1.50;;;0.43;;
74269;SDS011;62754;48.252;11.654;2022-09-09T12:53:07;3.75;;;0.70;;
74269;SDS011;62754;48.252;11.654;2022-09-09T12:55:38;2.15;;;0.45;;
74269;SDS011;62754;48.252;11.654;2022-09-09T12:58:04;3.00;;;0.50;;
74269;SDS011;62754;48.252;11.654;2022-09-09T13:00:32;0.75;;;0.30;;
74269;SDS011;62754;48.252;11.654;2022-09-09T13:03:00;2.60;;;0.77;;
74269;SDS011;62754;48.252;11.654;2022-09-09T13:05:33;2.53;;;0.75;;
74269;SDS011;62754;48.252;11.654;2022-09-09T13:08:04;1.85;;;0.40;;
74269;SDS011;62754;48.252;11.654;2022-09-09T13:10:33;2.28;;;0.63;;
74269;SDS011;62754;48.252;11.654;2022-09-09T13:13:13;2.53;;;0.73;;
74269;SDS011;62754;48.252;11.654;2022-09-09T13:15:48;1.65;;;0.57;;
74269;SDS011;62754;48.252;11.654;2022-09-09T13:18:52;1.90;;;0.60;;
74269;SDS011;62754;48.252;11.654;2022-09-09T13:21:11;2.53;;;0.82;;
74269;SDS011;62754;48.252;11.654;2022-09-09T13:23:37;0.88;;;0.45;;
74269;SDS011;62754;48.252;11.654;2022-09-09T13:26:06;1.70;;;0.57;;
74269;SDS011;62754;48.252;11.654;2022-09-09T13:28:46;0.93;;;0.40;;
74269;SDS011;62754;48.252;11.654;2022-09-09T13:31:28;1.92;;;0.70;;
74269;SDS011;62754;48.252;11.654;2022-09-09T13:33:55;1.65;;;0.68;;
74269;SDS011;62754;48.252;11.654;2022-09-09T13:36:27;1.67;;;0.50;;
74269;SDS011;62754;48.252;11.654;2022-09-09T13:38:59;2.40;;;0.57;;
74269;SDS011;62754;48.252;11.654;2022-09-09T13:41:31;1.83;;;0.65;;
74269;SDS011;62754;48.252;11.654;2022-09-09T13:43:59;3.63;;;0.73;;
74269;SDS011;62754;48.252;11.654;2022-09-09T13:46:32;1.60;;;0.55;;
74269;SDS011;62754;48.252;11.654;2022-09-09T13:49:19;1.70;;;0.50;;
74269;SDS011;62754;48.252;11.654;2022-09-09T13:51:47;1.65;;;0.60;;
74269;SDS011;62754;48.252;11.654;2022-09-09T13:54:15;4.22;;;0.90;;
74269;SDS011;62754;48.252;11.654;2022-09-09T13:56:43;4.07;;;0.85;;
74269;SDS011;62754;48.252;11.654;2022-09-09T13:59:13;2.08;;;0.50;;
74269;SDS011;62754;48.252;11.654;2022-09-09T14:01:43;3.05;;;0.60;;
74269;SDS011;62754;48.252;11.654;2022-09-09T14:04:09;2.30;;;0.70;;
74269;SDS011;62754;48.252;11.654;2022-09-09T14:06:35;1.67;;;0.60;;
74269;SDS011;62754;48.252;11.654;2022-09-09T14:09:01;1.33;;;0.40;;
74269;SDS011;62754;48.252;11.654;2022-09-09T14:11:27;1.77;;;0.50;;
74269;SDS011;62754;48.252;11.654;2022-09-09T14:13:53;1.45;;;0.40;;
74269;SDS011;62754;48.252;11.654;2022-09-09T14:16:18;1.58;;;0.50;;
74269;SDS011;62754;48.252;11.654;2022-09-09T14:18:45;2.35;;;0.68;;
74269;SDS011;62754;48.252;11.654;2022-09-09T14:21:11;2.05;;;0.70;;
74269;SDS011;62754;48.252;11.654;2022-09-09T14:23:37;8.02;;;0.70;;
74269;SDS011;62754;48.252;11.654;2022-09-09T14:26:04;1.52;;;0.38;;
74269;SDS011;62754;48.252;11.654;2022-09-09T14:28:33;1.95;;;0.50;;
74269;SDS011;62754;48.252;11.654;2022-09-09T14:31:00;1.20;;;0.40;;
74269;SDS011;62754;48.252;11.654;2022-09-09T14:33:27;1.80;;;0.55;;
74269;SDS011;62754;48.252;11.654;2022-09-09T14:36:00;2.83;;;1.17;;
74269;SDS011;62754;48.252;11.654;2022-09-09T14:38:34;2.67;;;0.80;;
74269;SDS011;62754;48.252;11.654;2022-09-09T14:41:01;1.95;;;0.80;;
74269;SDS011;62754;48.252;11.654;2022-09-09T14:43:27;2.38;;;0.70;;
74269;SDS011;62754;48.252;11.654;2022-09-09T14:45:53;1.73;;;0.60;;
74269;SDS011;62754;48.252;11.654;2022-09-09T14:48:18;2.05;;;0.80;;
74269;SDS011;62754;48.252;11.654;2022-09-09T14:50:44;1.60;;;0.57;;
74269;SDS011;62754;48.252;11.654;2022-09-09T14:53:10;3.85;;;1.60;;
74269;SDS011;62754;48.252;11.654;2022-09-09T14:55:36;2.30;;;1.10;;
74269;SDS011;62754;48.252;11.654;2022-09-09T15:00:28;3.95;;;1.60;;
74269;SDS011;62754;48.252;11.654;2022-09-09T15:02:54;3.47;;;1.48;;
74269;SDS011;62754;48.252;11.654;2022-09-09T15:05:20;4.07;;;2.00;;
74269;SDS011;62754;48.252;11.654;2022-09-09T15:07:47;2.88;;;1.00;;
74269;SDS011;62754;48.252;11.654;2022-09-09T15:10:12;2.33;;;0.70;;
74269;SDS011;62754;48.252;11.654;2022-09-09T15:12:38;1.75;;;0.60;;
74269;SDS011;62754;48.252;11.654;2022-09-09T15:15:04;1.80;;;0.50;;
74269;SDS011;62754;48.252;11.654;2022-09-09T15:17:30;2.47;;;0.80;;
74269;SDS011;62754;48.252;11.654;2022-09-09T15:19:56;3.78;;;0.77;;
74269;SDS011;62754;48.252;11.654;2022-09-09T15:22:22;2.42;;;0.60;;
74269;SDS011;62754;48.252;11.654;2022-09-09T15:27:14;1.58;;;0.60;;
74269;SDS011;62754;48.252;11.654;2022-09-09T15:29:40;2.20;;;0.60;;
74269;SDS011;62754;48.252;11.654;2022-09-09T15:32:06;2.03;;;0.70;;
74269;SDS011;62754;48.252;11.654;2022-09-09T15:34:32;1.73;;;0.40;;
74269;SDS011;62754;48.252;11.654;2022-09-09T15:36:58;1.52;;;0.30;;
74269;SDS011;62754;48.252;11.654;2022-09-09T15:39:23;1.98;;;1.00;;
74269;SDS011;62754;48.252;11.654;2022-09-09T15:41:49;2.10;;;0.63;;
74269;SDS011;62754;48.252;11.654;2022-09-09T15:44:15;3.83;;;0.70;;
74269;SDS011;62754;48.252;11.654;2022-09-09T15:51:38;1.40;;;0.40;;
74269;SDS011;62754;48.252;11.654;2022-09-09T15:54:05;1.88;;;0.60;;
74269;SDS011;62754;48.252;11.654;2022-09-09T15:56:31;1.63;;;0.57;;
74269;SDS011;62754;48.252;11.654;2022-09-09T15:58:57;3.47;;;0.55;;
74269;SDS011;62754;48.252;11.654;2022-09-09T16:01:24;2.13;;;0.40;;
74269;SDS011;62754;48.252;11.654;2022-09-09T16:03:50;1.55;;;0.55;;
74269;SDS011;62754;48.252;11.654;2022-09-09T16:08:43;2.88;;;0.60;;
74269;SDS011;62754;48.252;11.654;2022-09-09T16:11:14;1.55;;;0.50;;
74269;SDS011;62754;48.252;11.654;2022-09-09T16:13:42;1.88;;;0.68;;
74269;SDS011;62754;48.252;11.654;2022-09-09T16:16:12;2.55;;;0.60;;
74269;SDS011;62754;48.252;11.654;2022-09-09T16:18:40;4.30;;;0.60;;
74269;SDS011;62754;48.252;11.654;2022-09-09T16:21:08;2.70;;;0.52;;
74269;SDS011;62754;48.252;11.654;2022-09-09T16:26:06;3.42;;;0.50;;
74269;SDS011;62754;48.252;11.654;2022-09-09T16:28:31;2.60;;;0.80;;
74269;SDS011;62754;48.252;11.654;2022-09-09T16:30:57;1.05;;;0.40;;
74269;SDS011;62754;48.252;11.654;2022-09-09T16:33:23;6.07;;;0.90;;
74269;SDS011;62754;48.252;11.654;2022-09-09T16:35:49;4.22;;;1.00;;
74269;SDS011;62754;48.252;11.654;2022-09-09T16:38:15;3.72;;;0.70;;
74269;SDS011;62754;48.252;11.654;2022-09-09T16:40:41;3.28;;;0.75;;
74269;SDS011;62754;48.252;11.654;2022-09-09T16:43:07;4.55;;;0.80;;
74269;SDS011;62754;48.252;11.654;2022-09-09T16:45:33;3.22;;;0.80;;
74269;SDS011;62754;48.252;11.654;2022-09-09T16:47:59;4.72;;;0.77;;
74269;SDS011;62754;48.252;11.654;2022-09-09T16:50:25;1.73;;;0.50;;
74269;SDS011;62754;48.252;11.654;2022-09-09T16:52:51;3.15;;;0.70;;
74269;SDS011;62754;48.252;11.654;2022-09-09T16:55:17;1.75;;;0.73;;
74269;SDS011;62754;48.252;11.654;2022-09-09T16:57:43;2.60;;;0.65;;
74269;SDS011;62754;48.252;11.654;2022-09-09T17:00:09;2.95;;;0.70;;
74269;SDS011;62754;48.252;11.654;2022-09-09T17:02:35;1.50;;;0.55;;
74269;SDS011;62754;48.252;11.654;2022-09-09T17:05:01;3.30;;;0.80;;
74269;SDS011;62754;48.252;11.654;2022-09-09T17:07:27;2.97;;;0.70;;
74269;SDS011;62754;48.252;11.654;2022-09-09T17:09:53;2.03;;;0.47;;
74269;SDS011;62754;48.252;11.654;2022-09-09T17:12:18;2.55;;;0.80;;
74269;SDS011;62754;48.252;11.654;2022-09-09T17:14:44;1.55;;;0.50;;
74269;SDS011;62754;48.252;11.654;2022-09-09T17:17:10;2.03;;;0.65;;
74269;SDS011;62754;48.252;11.654;2022-09-09T17:19:35;2.65;;;1.05;;
74269;SDS011;62754;48.252;11.654;2022-09-09T17:22:01;3.60;;;0.80;;
74269;SDS011;62754;48.252;11.654;2022-09-09T17:24:27;1.00;;;0.50;;
74269;SDS011;62754;48.252;11.654;2022-09-09T17:26:53;1.98;;;0.73;;
74269;SDS011;62754;48.252;11.654;2022-09-09T17:29:19;2.95;;;0.70;;
74269;SDS011;62754;48.252;11.654;2022-09-09T17:31:44;5.75;;;0.80;;
74269;SDS011;62754;48.252;11.654;2022-09-09T17:34:10;2.08;;;0.60;;
74269;SDS011;62754;48.252;11.654;2022-09-09T17:36:36;4.45;;;1.05;;
74269;SDS011;62754;48.252;11.654;2022-09-09T17:39:02;2.47;;;0.80;;